sensor_id;sensor_type;location;lat;lon;timestamp;P1;durP1;ratioP1;P2;durP2;ratioP2
69369;SDS011;56530;42.640;23.372;2024-01-16T00:01:51;15.93;;;13.40;;
69369;SDS011;56530;42.640;23.372;2024-01-16T00:04:16;16.07;;;13.10;;
69369;SDS011;56530;42.640;23.372;2024-01-16T00:06:42;16.53;;;13.93;;
69369;SDS011;56530;42.640;23.372;2024-01-16T00:09:08;15.90;;;13.57;;
69369;SDS011;56530;42.640;23.372;2024-01-16T00:11:39;18.13;;;14.47;;
69369;SDS011;56530;42.640;23.372;2024-01-16T00:14:06;16.53;;;13.60;;
69369;SDS011;56530;42.640;23.372;2024-01-16T00:16:31;15.20;;;13.40;;
69369;SDS011;56530;42.640;23.372;2024-01-16T00:18:56;15.20;;;13.70;;
69369;SDS011;56530;42.640;23.372;2024-01-16T00:21:22;14.93;;;13.03;;
69369;SDS011;56530;42.640;23.372;2024-01-16T00:23:47;19.13;;;13.73;;
69369;SDS011;56530;42.640;23.372;2024-01-16T00:26:19;14.00;;;12.23;;
69369;SDS011;56530;42.640;23.372;2024-01-16T00:28:46;13.93;;;12.43;;
69369;SDS011;56530;42.640;23.372;2024-01-16T00:31:11;14.07;;;12.57;;
69369;SDS011;56530;42.640;23.372;2024-01-16T00:33:36;14.10;;;12.57;;
69369;SDS011;56530;42.640;23.372;2024-01-16T00:36:02;14.00;;;12.53;;
69369;SDS011;56530;42.640;23.372;2024-01-16T00:38:27;14.10;;;12.27;;
69369;SDS011;56530;42.640;23.372;2024-01-16T00:40:53;13.57;;;11.97;;
69369;SDS011;56530;42.640;23.372;2024-01-16T00:43:18;14.23;;;12.73;;
69369;SDS011;56530;42.640;23.372;2024-01-16T00:45:43;14.67;;;13.17;;
69369;SDS011;56530;42.640;23.372;2024-01-16T00:48:10;14.40;;;12.50;;
69369;SDS011;56530;42.640;23.372;2024-01-16T00:50:38;14.63;;;12.97;;
69369;SDS011;56530;42.640;23.372;2024-01-16T00:53:03;13.40;;;11.80;;
69369;SDS011;56530;42.640;23.372;2024-01-16T00:55:29;13.87;;;11.07;;
69369;SDS011;56530;42.640;23.372;2024-01-16T00:57:54;14.00;;;11.93;;
69369;SDS011;56530;42.640;23.372;2024-01-16T01:00:19;11.97;;;10.70;;
69369;SDS011;56530;42.640;23.372;2024-01-16T01:02:45;13.00;;;11.57;;
69369;SDS011;56530;42.640;23.372;2024-01-16T01:05:10;14.47;;;11.40;;
69369;SDS011;56530;42.640;23.372;2024-01-16T01:07:35;13.07;;;11.30;;
69369;SDS011;56530;42.640;23.372;2024-01-16T01:10:01;12.37;;;10.87;;
69369;SDS011;56530;42.640;23.372;2024-01-16T01:12:27;13.30;;;11.73;;
69369;SDS011;56530;42.640;23.372;2024-01-16T01:14:53;13.70;;;11.67;;
69369;SDS011;56530;42.640;23.372;2024-01-16T01:17:18;13.43;;;10.97;;
69369;SDS011;56530;42.640;23.372;2024-01-16T01:19:43;12.40;;;10.80;;
69369;SDS011;56530;42.640;23.372;2024-01-16T01:22:11;11.70;;;10.43;;
69369;SDS011;56530;42.640;23.372;2024-01-16T01:24:36;12.20;;;10.10;;
69369;SDS011;56530;42.640;23.372;2024-01-16T01:27:02;11.83;;;10.07;;
69369;SDS011;56530;42.640;23.372;2024-01-16T01:29:27;12.33;;;10.47;;
69369;SDS011;56530;42.640;23.372;2024-01-16T01:31:52;12.20;;;10.53;;
69369;SDS011;56530;42.640;23.372;2024-01-16T01:34:18;11.77;;;10.57;;
69369;SDS011;56530;42.640;23.372;2024-01-16T01:36:43;13.43;;;10.87;;
69369;SDS011;56530;42.640;23.372;2024-01-16T01:39:09;12.43;;;11.07;;
69369;SDS011;56530;42.640;23.372;2024-01-16T01:41:36;12.10;;;10.77;;
69369;SDS011;56530;42.640;23.372;2024-01-16T01:44:01;14.67;;;10.93;;
69369;SDS011;56530;42.640;23.372;2024-01-16T01:46:26;10.43;;;9.33;;
69369;SDS011;56530;42.640;23.372;2024-01-16T01:48:52;10.27;;;9.10;;
69369;SDS011;56530;42.640;23.372;2024-01-16T01:51:18;12.10;;;10.80;;
69369;SDS011;56530;42.640;23.372;2024-01-16T01:53:44;11.67;;;10.47;;
69369;SDS011;56530;42.640;23.372;2024-01-16T01:56:17;12.50;;;11.20;;
69369;SDS011;56530;42.640;23.372;2024-01-16T01:58:45;10.40;;;9.30;;
69369;SDS011;56530;42.640;23.372;2024-01-16T02:01:11;9.87;;;8.87;;
69369;SDS011;56530;42.640;23.372;2024-01-16T02:03:41;10.93;;;9.80;;
69369;SDS011;56530;42.640;23.372;2024-01-16T02:06:08;11.60;;;9.53;;
69369;SDS011;56530;42.640;23.372;2024-01-16T02:08:35;10.30;;;9.20;;
69369;SDS011;56530;42.640;23.372;2024-01-16T02:11:00;10.97;;;9.10;;
69369;SDS011;56530;42.640;23.372;2024-01-16T02:13:25;9.63;;;8.63;;
69369;SDS011;56530;42.640;23.372;2024-01-16T02:15:51;13.17;;;8.90;;
69369;SDS011;56530;42.640;23.372;2024-01-16T02:18:16;9.00;;;8.10;;
69369;SDS011;56530;42.640;23.372;2024-01-16T02:20:43;9.80;;;8.57;;
69369;SDS011;56530;42.640;23.372;2024-01-16T02:23:08;9.60;;;8.30;;
69369;SDS011;56530;42.640;23.372;2024-01-16T02:25:35;10.63;;;8.73;;
69369;SDS011;56530;42.640;23.372;2024-01-16T02:28:00;10.83;;;9.70;;
69369;SDS011;56530;42.640;23.372;2024-01-16T02:30:27;9.00;;;8.10;;
69369;SDS011;56530;42.640;23.372;2024-01-16T02:32:52;9.30;;;8.40;;
69369;SDS011;56530;42.640;23.372;2024-01-16T02:35:17;8.53;;;7.73;;
69369;SDS011;56530;42.640;23.372;2024-01-16T02:37:43;8.50;;;7.70;;
69369;SDS011;56530;42.640;23.372;2024-01-16T02:40:09;9.70;;;7.87;;
69369;SDS011;56530;42.640;23.372;2024-01-16T02:42:36;7.23;;;6.50;;
69369;SDS011;56530;42.640;23.372;2024-01-16T02:45:02;7.27;;;6.57;;
69369;SDS011;56530;42.640;23.372;2024-01-16T02:47:29;7.97;;;6.80;;
69369;SDS011;56530;42.640;23.372;2024-01-16T02:49:54;7.93;;;6.87;;
69369;SDS011;56530;42.640;23.372;2024-01-16T02:52:20;8.07;;;7.27;;
69369;SDS011;56530;42.640;23.372;2024-01-16T02:54:45;6.83;;;6.23;;
69369;SDS011;56530;42.640;23.372;2024-01-16T02:57:11;7.97;;;7.17;;
69369;SDS011;56530;42.640;23.372;2024-01-16T02:59:36;9.27;;;8.10;;
69369;SDS011;56530;42.640;23.372;2024-01-16T03:02:01;8.27;;;7.47;;
69369;SDS011;56530;42.640;23.372;2024-01-16T03:04:27;9.83;;;7.60;;
69369;SDS011;56530;42.640;23.372;2024-01-16T03:06:53;8.77;;;7.70;;
69369;SDS011;56530;42.640;23.372;2024-01-16T03:09:18;9.43;;;7.22;;
69369;SDS011;56530;42.640;23.372;2024-01-16T03:11:43;10.47;;;7.37;;
69369;SDS011;56530;42.640;23.372;2024-01-16T03:14:09;8.10;;;6.90;;
69369;SDS011;56530;42.640;23.372;2024-01-16T03:16:34;8.20;;;7.33;;
69369;SDS011;56530;42.640;23.372;2024-01-16T03:19:00;7.97;;;7.17;;
69369;SDS011;56530;42.640;23.372;2024-01-16T03:21:25;8.53;;;7.73;;
69369;SDS011;56530;42.640;23.372;2024-01-16T03:23:52;8.47;;;7.67;;
69369;SDS011;56530;42.640;23.372;2024-01-16T03:26:18;8.20;;;7.38;;
69369;SDS011;56530;42.640;23.372;2024-01-16T03:28:43;8.10;;;7.32;;
69369;SDS011;56530;42.640;23.372;2024-01-16T03:31:09;8.85;;;7.95;;
69369;SDS011;56530;42.640;23.372;2024-01-16T03:33:34;9.20;;;7.13;;
69369;SDS011;56530;42.640;23.372;2024-01-16T03:36:00;9.02;;;7.47;;
69369;SDS011;56530;42.640;23.372;2024-01-16T03:38:26;7.63;;;6.82;;
69369;SDS011;56530;42.640;23.372;2024-01-16T03:40:51;6.70;;;6.00;;
69369;SDS011;56530;42.640;23.372;2024-01-16T03:43:17;6.47;;;5.90;;
69369;SDS011;56530;42.640;23.372;2024-01-16T03:45:42;5.40;;;4.90;;
69369;SDS011;56530;42.640;23.372;2024-01-16T03:48:08;4.73;;;4.37;;
69369;SDS011;56530;42.640;23.372;2024-01-16T03:50:34;4.70;;;4.30;;
69369;SDS011;56530;42.640;23.372;2024-01-16T03:53:01;4.23;;;3.93;;
69369;SDS011;56530;42.640;23.372;2024-01-16T03:55:27;5.50;;;5.00;;
69369;SDS011;56530;42.640;23.372;2024-01-16T03:57:53;4.40;;;4.10;;
69369;SDS011;56530;42.640;23.372;2024-01-16T04:00:18;4.60;;;4.30;;
69369;SDS011;56530;42.640;23.372;2024-01-16T04:02:44;4.43;;;4.13;;
69369;SDS011;56530;42.640;23.372;2024-01-16T04:05:11;4.23;;;3.93;;
69369;SDS011;56530;42.640;23.372;2024-01-16T04:07:36;4.20;;;3.90;;
69369;SDS011;56530;42.640;23.372;2024-01-16T04:10:01;4.37;;;4.07;;
69369;SDS011;56530;42.640;23.372;2024-01-16T04:12:28;3.60;;;3.30;;
69369;SDS011;56530;42.640;23.372;2024-01-16T04:14:53;3.37;;;3.17;;
69369;SDS011;56530;42.640;23.372;2024-01-16T04:17:18;3.60;;;3.33;;
69369;SDS011;56530;42.640;23.372;2024-01-16T04:19:45;3.10;;;2.90;;
69369;SDS011;56530;42.640;23.372;2024-01-16T04:22:12;3.03;;;2.83;;
69369;SDS011;56530;42.640;23.372;2024-01-16T04:24:37;3.03;;;2.83;;
69369;SDS011;56530;42.640;23.372;2024-01-16T04:27:02;2.80;;;2.60;;
69369;SDS011;56530;42.640;23.372;2024-01-16T04:29:28;3.20;;;2.93;;
69369;SDS011;56530;42.640;23.372;2024-01-16T04:31:54;2.73;;;2.63;;
69369;SDS011;56530;42.640;23.372;2024-01-16T04:34:20;2.67;;;2.47;;
69369;SDS011;56530;42.640;23.372;2024-01-16T04:36:45;3.00;;;2.80;;
69369;SDS011;56530;42.640;23.372;2024-01-16T04:39:11;2.30;;;2.20;;
69369;SDS011;56530;42.640;23.372;2024-01-16T04:41:37;2.57;;;2.47;;
69369;SDS011;56530;42.640;23.372;2024-01-16T04:44:02;2.33;;;2.23;;
69369;SDS011;56530;42.640;23.372;2024-01-16T04:46:27;2.30;;;2.20;;
69369;SDS011;56530;42.640;23.372;2024-01-16T04:48:53;2.63;;;2.47;;
69369;SDS011;56530;42.640;23.372;2024-01-16T04:51:18;2.53;;;2.30;;
69369;SDS011;56530;42.640;23.372;2024-01-16T04:53:44;2.57;;;2.47;;
69369;SDS011;56530;42.640;23.372;2024-01-16T04:56:09;2.53;;;2.40;;
69369;SDS011;56530;42.640;23.372;2024-01-16T04:58:34;2.70;;;2.50;;
69369;SDS011;56530;42.640;23.372;2024-01-16T05:01:00;2.47;;;2.37;;
69369;SDS011;56530;42.640;23.372;2024-01-16T05:03:25;2.20;;;2.10;;
69369;SDS011;56530;42.640;23.372;2024-01-16T05:05:50;3.80;;;2.90;;
69369;SDS011;56530;42.640;23.372;2024-01-16T05:08:16;2.07;;;1.97;;
69369;SDS011;56530;42.640;23.372;2024-01-16T05:10:41;2.00;;;1.77;;
69369;SDS011;56530;42.640;23.372;2024-01-16T05:13:08;2.20;;;2.00;;
69369;SDS011;56530;42.640;23.372;2024-01-16T05:15:34;2.10;;;2.00;;
69369;SDS011;56530;42.640;23.372;2024-01-16T05:17:59;2.10;;;2.00;;
69369;SDS011;56530;42.640;23.372;2024-01-16T05:20:24;2.10;;;2.00;;
69369;SDS011;56530;42.640;23.372;2024-01-16T05:22:50;2.73;;;2.30;;
69369;SDS011;56530;42.640;23.372;2024-01-16T05:25:15;1.97;;;1.87;;
69369;SDS011;56530;42.640;23.372;2024-01-16T05:27:42;2.60;;;2.40;;
69369;SDS011;56530;42.640;23.372;2024-01-16T05:30:09;1.80;;;1.70;;
69369;SDS011;56530;42.640;23.372;2024-01-16T05:32:34;2.00;;;1.90;;
69369;SDS011;56530;42.640;23.372;2024-01-16T05:35:00;1.90;;;1.80;;
69369;SDS011;56530;42.640;23.372;2024-01-16T05:37:25;1.73;;;1.63;;
69369;SDS011;56530;42.640;23.372;2024-01-16T05:39:51;2.07;;;1.97;;
69369;SDS011;56530;42.640;23.372;2024-01-16T05:42:16;1.80;;;1.70;;
69369;SDS011;56530;42.640;23.372;2024-01-16T05:44:42;2.30;;;2.00;;
69369;SDS011;56530;42.640;23.372;2024-01-16T05:47:07;1.90;;;1.80;;
69369;SDS011;56530;42.640;23.372;2024-01-16T05:49:33;2.50;;;2.30;;
69369;SDS011;56530;42.640;23.372;2024-01-16T05:51:59;2.10;;;1.90;;
69369;SDS011;56530;42.640;23.372;2024-01-16T05:54:24;3.23;;;1.90;;
69369;SDS011;56530;42.640;23.372;2024-01-16T05:56:50;1.80;;;1.70;;
69369;SDS011;56530;42.640;23.372;2024-01-16T05:59:16;1.70;;;1.60;;
69369;SDS011;56530;42.640;23.372;2024-01-16T06:01:41;2.30;;;2.10;;
69369;SDS011;56530;42.640;23.372;2024-01-16T06:04:08;2.00;;;1.90;;
69369;SDS011;56530;42.640;23.372;2024-01-16T06:06:33;2.17;;;2.07;;
69369;SDS011;56530;42.640;23.372;2024-01-16T06:08:59;2.00;;;1.90;;
69369;SDS011;56530;42.640;23.372;2024-01-16T06:11:30;2.73;;;2.53;;
69369;SDS011;56530;42.640;23.372;2024-01-16T06:14:02;2.33;;;2.23;;
69369;SDS011;56530;42.640;23.372;2024-01-16T06:16:28;2.57;;;2.40;;
69369;SDS011;56530;42.640;23.372;2024-01-16T06:18:56;1.93;;;1.83;;
69369;SDS011;56530;42.640;23.372;2024-01-16T06:21:23;2.30;;;2.20;;
69369;SDS011;56530;42.640;23.372;2024-01-16T06:23:48;2.57;;;2.30;;
69369;SDS011;56530;42.640;23.372;2024-01-16T06:26:14;2.17;;;2.07;;
69369;SDS011;56530;42.640;23.372;2024-01-16T06:28:40;2.53;;;2.33;;
69369;SDS011;56530;42.640;23.372;2024-01-16T06:31:07;2.17;;;2.07;;
69369;SDS011;56530;42.640;23.372;2024-01-16T06:33:33;2.20;;;2.10;;
69369;SDS011;56530;42.640;23.372;2024-01-16T06:35:59;2.23;;;2.13;;
69369;SDS011;56530;42.640;23.372;2024-01-16T06:38:24;2.43;;;2.30;;
69369;SDS011;56530;42.640;23.372;2024-01-16T06:40:50;2.53;;;2.43;;
69369;SDS011;56530;42.640;23.372;2024-01-16T06:43:15;2.50;;;2.37;;
69369;SDS011;56530;42.640;23.372;2024-01-16T06:45:44;2.60;;;2.40;;
69369;SDS011;56530;42.640;23.372;2024-01-16T06:48:09;3.07;;;2.87;;
69369;SDS011;56530;42.640;23.372;2024-01-16T06:50:35;6.23;;;2.77;;
69369;SDS011;56530;42.640;23.372;2024-01-16T06:53:01;3.37;;;3.10;;
69369;SDS011;56530;42.640;23.372;2024-01-16T06:55:26;2.17;;;2.07;;
69369;SDS011;56530;42.640;23.372;2024-01-16T06:57:52;2.30;;;2.10;;
69369;SDS011;56530;42.640;23.372;2024-01-16T07:00:17;2.17;;;2.07;;
69369;SDS011;56530;42.640;23.372;2024-01-16T07:02:43;2.17;;;1.80;;
69369;SDS011;56530;42.640;23.372;2024-01-16T07:05:09;2.00;;;1.90;;
69369;SDS011;56530;42.640;23.372;2024-01-16T07:07:36;2.50;;;2.30;;
69369;SDS011;56530;42.640;23.372;2024-01-16T07:10:01;3.57;;;2.70;;
69369;SDS011;56530;42.640;23.372;2024-01-16T07:12:27;2.70;;;2.40;;
69369;SDS011;56530;42.640;23.372;2024-01-16T07:14:52;2.93;;;2.63;;
69369;SDS011;56530;42.640;23.372;2024-01-16T07:17:18;2.70;;;2.50;;
69369;SDS011;56530;42.640;23.372;2024-01-16T07:19:43;2.97;;;2.67;;
69369;SDS011;56530;42.640;23.372;2024-01-16T07:22:08;2.73;;;2.47;;
69369;SDS011;56530;42.640;23.372;2024-01-16T07:24:34;3.60;;;2.97;;
69369;SDS011;56530;42.640;23.372;2024-01-16T07:26:59;2.47;;;2.27;;
69369;SDS011;56530;42.640;23.372;2024-01-16T07:29:25;2.20;;;2.00;;
69369;SDS011;56530;42.640;23.372;2024-01-16T07:31:50;2.53;;;2.33;;
69369;SDS011;56530;42.640;23.372;2024-01-16T07:34:17;4.03;;;2.10;;
69369;SDS011;56530;42.640;23.372;2024-01-16T07:36:46;2.50;;;2.30;;
69369;SDS011;56530;42.640;23.372;2024-01-16T07:39:12;2.73;;;2.53;;
69369;SDS011;56530;42.640;23.372;2024-01-16T07:41:37;2.47;;;2.27;;
69369;SDS011;56530;42.640;23.372;2024-01-16T07:44:03;2.53;;;2.33;;
69369;SDS011;56530;42.640;23.372;2024-01-16T07:46:28;3.73;;;2.27;;
69369;SDS011;56530;42.640;23.372;2024-01-16T07:48:53;3.83;;;3.30;;
69369;SDS011;56530;42.640;23.372;2024-01-16T07:51:19;3.30;;;2.80;;
69369;SDS011;56530;42.640;23.372;2024-01-16T07:53:44;2.50;;;2.20;;
69369;SDS011;56530;42.640;23.372;2024-01-16T07:56:11;3.47;;;2.97;;
69369;SDS011;56530;42.640;23.372;2024-01-16T07:58:37;3.27;;;2.97;;
69369;SDS011;56530;42.640;23.372;2024-01-16T08:01:02;4.03;;;3.10;;
69369;SDS011;56530;42.640;23.372;2024-01-16T08:03:28;3.57;;;2.80;;
69369;SDS011;56530;42.640;23.372;2024-01-16T08:05:53;3.13;;;2.67;;
69369;SDS011;56530;42.640;23.372;2024-01-16T08:08:19;4.27;;;2.63;;
69369;SDS011;56530;42.640;23.372;2024-01-16T08:10:44;4.60;;;3.53;;
69369;SDS011;56530;42.640;23.372;2024-01-16T08:13:10;2.90;;;2.70;;
69369;SDS011;56530;42.640;23.372;2024-01-16T08:15:36;3.10;;;2.90;;
69369;SDS011;56530;42.640;23.372;2024-01-16T08:18:02;2.93;;;2.73;;
69369;SDS011;56530;42.640;23.372;2024-01-16T08:20:27;3.07;;;2.60;;
69369;SDS011;56530;42.640;23.372;2024-01-16T08:22:53;2.60;;;2.40;;
69369;SDS011;56530;42.640;23.372;2024-01-16T08:25:18;2.73;;;2.53;;
69369;SDS011;56530;42.640;23.372;2024-01-16T08:27:44;3.60;;;3.00;;
69369;SDS011;56530;42.640;23.372;2024-01-16T08:30:09;3.20;;;3.00;;
69369;SDS011;56530;42.640;23.372;2024-01-16T08:32:37;2.73;;;2.53;;
69369;SDS011;56530;42.640;23.372;2024-01-16T08:35:03;2.83;;;2.50;;
69369;SDS011;56530;42.640;23.372;2024-01-16T08:37:30;3.00;;;2.80;;
69369;SDS011;56530;42.640;23.372;2024-01-16T08:39:56;3.47;;;2.43;;
69369;SDS011;56530;42.640;23.372;2024-01-16T08:42:22;2.03;;;1.93;;
69369;SDS011;56530;42.640;23.372;2024-01-16T08:44:47;3.13;;;2.20;;
69369;SDS011;56530;42.640;23.372;2024-01-16T08:47:13;2.00;;;1.90;;
69369;SDS011;56530;42.640;23.372;2024-01-16T08:49:38;2.50;;;2.30;;
69369;SDS011;56530;42.640;23.372;2024-01-16T08:52:04;2.37;;;2.17;;
69369;SDS011;56530;42.640;23.372;2024-01-16T08:54:30;2.27;;;2.10;;
69369;SDS011;56530;42.640;23.372;2024-01-16T08:56:56;1.90;;;1.80;;
69369;SDS011;56530;42.640;23.372;2024-01-16T08:59:21;3.27;;;2.10;;
69369;SDS011;56530;42.640;23.372;2024-01-16T09:01:48;3.10;;;2.30;;
69369;SDS011;56530;42.640;23.372;2024-01-16T09:04:13;3.43;;;3.13;;
69369;SDS011;56530;42.640;23.372;2024-01-16T09:06:38;4.40;;;2.80;;
69369;SDS011;56530;42.640;23.372;2024-01-16T09:09:04;3.20;;;2.90;;
69369;SDS011;56530;42.640;23.372;2024-01-16T09:11:30;4.70;;;2.80;;
69369;SDS011;56530;42.640;23.372;2024-01-16T09:13:56;4.97;;;3.40;;
69369;SDS011;56530;42.640;23.372;2024-01-16T09:16:22;3.53;;;3.07;;
69369;SDS011;56530;42.640;23.372;2024-01-16T09:18:47;6.57;;;3.57;;
69369;SDS011;56530;42.640;23.372;2024-01-16T09:21:13;4.27;;;3.30;;
69369;SDS011;56530;42.640;23.372;2024-01-16T09:23:39;4.40;;;3.50;;
69369;SDS011;56530;42.640;23.372;2024-01-16T09:26:04;5.03;;;3.40;;
69369;SDS011;56530;42.640;23.372;2024-01-16T09:28:30;3.53;;;2.87;;
69369;SDS011;56530;42.640;23.372;2024-01-16T09:30:55;2.90;;;2.60;;
69369;SDS011;56530;42.640;23.372;2024-01-16T09:33:21;2.80;;;2.60;;
69369;SDS011;56530;42.640;23.372;2024-01-16T09:35:48;4.10;;;3.37;;
69369;SDS011;56530;42.640;23.372;2024-01-16T09:38:13;6.20;;;3.00;;
69369;SDS011;56530;42.640;23.372;2024-01-16T09:40:39;3.13;;;2.57;;
69369;SDS011;56530;42.640;23.372;2024-01-16T09:43:05;6.40;;;2.63;;
69369;SDS011;56530;42.640;23.372;2024-01-16T09:45:33;4.40;;;2.73;;
69369;SDS011;56530;42.640;23.372;2024-01-16T09:48:02;2.93;;;2.37;;
69369;SDS011;56530;42.640;23.372;2024-01-16T09:50:28;3.17;;;2.07;;
69369;SDS011;56530;42.640;23.372;2024-01-16T09:52:53;2.63;;;2.40;;
69369;SDS011;56530;42.640;23.372;2024-01-16T09:55:21;7.70;;;2.87;;
69369;SDS011;56530;42.640;23.372;2024-01-16T09:57:47;3.50;;;2.97;;
69369;SDS011;56530;42.640;23.372;2024-01-16T10:00:17;2.70;;;2.50;;
69369;SDS011;56530;42.640;23.372;2024-01-16T10:02:43;3.70;;;3.37;;
69369;SDS011;56530;42.640;23.372;2024-01-16T10:05:12;2.27;;;2.07;;
69369;SDS011;56530;42.640;23.372;2024-01-16T10:07:39;2.70;;;2.50;;
69369;SDS011;56530;42.640;23.372;2024-01-16T10:10:06;4.70;;;2.87;;
69369;SDS011;56530;42.640;23.372;2024-01-16T10:12:32;6.07;;;2.50;;
69369;SDS011;56530;42.640;23.372;2024-01-16T10:14:58;5.83;;;2.80;;
69369;SDS011;56530;42.640;23.372;2024-01-16T10:17:43;3.03;;;2.10;;
69369;SDS011;56530;42.640;23.372;2024-01-16T10:20:09;2.90;;;2.10;;
69369;SDS011;56530;42.640;23.372;2024-01-16T10:22:41;5.90;;;2.03;;
69369;SDS011;56530;42.640;23.372;2024-01-16T10:25:10;5.40;;;2.37;;
69369;SDS011;56530;42.640;23.372;2024-01-16T10:27:38;4.80;;;2.20;;
69369;SDS011;56530;42.640;23.372;2024-01-16T10:30:08;4.20;;;2.57;;
69369;SDS011;56530;42.640;23.372;2024-01-16T10:32:41;4.17;;;2.30;;
69369;SDS011;56530;42.640;23.372;2024-01-16T10:35:12;2.47;;;2.27;;
69369;SDS011;56530;42.640;23.372;2024-01-16T10:37:42;4.13;;;2.37;;
69369;SDS011;56530;42.640;23.372;2024-01-16T10:40:10;3.53;;;2.00;;
69369;SDS011;56530;42.640;23.372;2024-01-16T10:42:41;2.70;;;2.33;;
69369;SDS011;56530;42.640;23.372;2024-01-16T10:45:11;4.03;;;2.33;;
69369;SDS011;56530;42.640;23.372;2024-01-16T10:47:42;2.53;;;2.33;;
69369;SDS011;56530;42.640;23.372;2024-01-16T10:50:08;2.42;;;2.00;;
69369;SDS011;56530;42.640;23.372;2024-01-16T10:52:34;4.83;;;2.40;;
69369;SDS011;56530;42.640;23.372;2024-01-16T10:55:00;6.37;;;2.53;;
69369;SDS011;56530;42.640;23.372;2024-01-16T10:57:31;7.30;;;2.77;;
69369;SDS011;56530;42.640;23.372;2024-01-16T11:00:05;2.60;;;2.13;;
69369;SDS011;56530;42.640;23.372;2024-01-16T11:02:38;2.17;;;1.70;;
69369;SDS011;56530;42.640;23.372;2024-01-16T11:05:08;4.03;;;2.13;;
69369;SDS011;56530;42.640;23.372;2024-01-16T11:07:36;8.03;;;2.37;;
69369;SDS011;56530;42.640;23.372;2024-01-16T11:10:02;3.80;;;2.50;;
69369;SDS011;56530;42.640;23.372;2024-01-16T11:12:31;2.30;;;2.10;;
69369;SDS011;56530;42.640;23.372;2024-01-16T11:14:58;3.40;;;2.00;;
69369;SDS011;56530;42.640;23.372;2024-01-16T11:17:32;2.17;;;1.93;;
69369;SDS011;56530;42.640;23.372;2024-01-16T11:19:59;2.80;;;2.37;;
69369;SDS011;56530;42.640;23.372;2024-01-16T11:22:25;2.50;;;2.30;;
69369;SDS011;56530;42.640;23.372;2024-01-16T11:27:38;2.17;;;2.07;;
69369;SDS011;56530;42.640;23.372;2024-01-16T11:30:10;3.60;;;3.10;;
69369;SDS011;56530;42.640;23.372;2024-01-16T11:32:37;3.05;;;2.72;;
69369;SDS011;56530;42.640;23.372;2024-01-16T11:35:05;4.20;;;3.15;;
69369;SDS011;56530;42.640;23.372;2024-01-16T11:37:33;3.47;;;2.85;;
69369;SDS011;56530;42.640;23.372;2024-01-16T11:42:42;6.72;;;3.05;;
69369;SDS011;56530;42.640;23.372;2024-01-16T11:45:08;3.40;;;2.85;;
69369;SDS011;56530;42.640;23.372;2024-01-16T11:48:12;3.03;;;2.78;;
69369;SDS011;56530;42.640;23.372;2024-01-16T11:50:38;3.47;;;3.17;;
69369;SDS011;56530;42.640;23.372;2024-01-16T11:53:04;5.55;;;2.70;;
69369;SDS011;56530;42.640;23.372;2024-01-16T11:55:32;3.90;;;2.85;;
69369;SDS011;56530;42.640;23.372;2024-01-16T12:00:49;3.13;;;2.83;;
69369;SDS011;56530;42.640;23.372;2024-01-16T12:03:21;3.13;;;2.83;;
69369;SDS011;56530;42.640;23.372;2024-01-16T12:05:56;2.45;;;2.25;;
69369;SDS011;56530;42.640;23.372;2024-01-16T12:08:25;6.05;;;3.10;;
69369;SDS011;56530;42.640;23.372;2024-01-16T12:10:51;3.25;;;2.85;;
69369;SDS011;56530;42.640;23.372;2024-01-16T12:13:16;3.67;;;3.17;;
69369;SDS011;56530;42.640;23.372;2024-01-16T12:15:42;4.60;;;3.90;;
69369;SDS011;56530;42.640;23.372;2024-01-16T12:18:07;4.20;;;3.77;;
69369;SDS011;56530;42.640;23.372;2024-01-16T12:20:36;3.10;;;2.80;;
69369;SDS011;56530;42.640;23.372;2024-01-16T12:23:05;3.92;;;3.25;;
69369;SDS011;56530;42.640;23.372;2024-01-16T12:25:32;4.80;;;3.13;;
69369;SDS011;56530;42.640;23.372;2024-01-16T12:28:03;4.90;;;3.03;;
69369;SDS011;56530;42.640;23.372;2024-01-16T12:30:30;4.60;;;2.40;;
69369;SDS011;56530;42.640;23.372;2024-01-16T12:35:38;3.43;;;2.67;;
69369;SDS011;56530;42.640;23.372;2024-01-16T12:38:05;3.73;;;2.90;;
69369;SDS011;56530;42.640;23.372;2024-01-16T12:40:31;3.97;;;2.73;;
69369;SDS011;56530;42.640;23.372;2024-01-16T12:42:58;2.30;;;2.10;;
69369;SDS011;56530;42.640;23.372;2024-01-16T12:45:23;2.70;;;2.50;;
69369;SDS011;56530;42.640;23.372;2024-01-16T12:47:52;3.13;;;2.77;;
69369;SDS011;56530;42.640;23.372;2024-01-16T12:50:19;3.80;;;3.10;;
69369;SDS011;56530;42.640;23.372;2024-01-16T12:52:49;4.50;;;3.00;;
69369;SDS011;56530;42.640;23.372;2024-01-16T12:55:15;2.70;;;2.50;;
69369;SDS011;56530;42.640;23.372;2024-01-16T12:57:42;3.50;;;2.90;;
69369;SDS011;56530;42.640;23.372;2024-01-16T13:00:23;5.83;;;2.70;;
69369;SDS011;56530;42.640;23.372;2024-01-16T13:02:52;3.00;;;2.73;;
69369;SDS011;56530;42.640;23.372;2024-01-16T13:05:18;3.90;;;3.50;;
69369;SDS011;56530;42.640;23.372;2024-01-16T13:07:44;3.20;;;2.90;;
69369;SDS011;56530;42.640;23.372;2024-01-16T13:10:10;3.10;;;2.90;;
69369;SDS011;56530;42.640;23.372;2024-01-16T13:12:43;4.70;;;3.23;;
69369;SDS011;56530;42.640;23.372;2024-01-16T13:15:08;3.30;;;2.97;;
69369;SDS011;56530;42.640;23.372;2024-01-16T13:17:36;3.50;;;3.20;;
69369;SDS011;56530;42.640;23.372;2024-01-16T13:20:01;4.43;;;3.37;;
69369;SDS011;56530;42.640;23.372;2024-01-16T13:22:28;5.90;;;3.67;;
69369;SDS011;56530;42.640;23.372;2024-01-16T13:24:54;4.07;;;3.67;;
69369;SDS011;56530;42.640;23.372;2024-01-16T13:27:20;3.77;;;3.33;;
69369;SDS011;56530;42.640;23.372;2024-01-16T13:29:46;3.47;;;3.17;;
69369;SDS011;56530;42.640;23.372;2024-01-16T13:32:11;6.23;;;3.37;;
69369;SDS011;56530;42.640;23.372;2024-01-16T13:34:38;4.27;;;3.87;;
69369;SDS011;56530;42.640;23.372;2024-01-16T13:37:03;5.37;;;3.43;;
69369;SDS011;56530;42.640;23.372;2024-01-16T13:39:29;3.17;;;2.87;;
69369;SDS011;56530;42.640;23.372;2024-01-16T13:42:01;4.90;;;2.83;;
69369;SDS011;56530;42.640;23.372;2024-01-16T13:44:30;6.03;;;3.33;;
69369;SDS011;56530;42.640;23.372;2024-01-16T13:46:56;3.43;;;3.07;;
69369;SDS011;56530;42.640;23.372;2024-01-16T13:49:21;4.23;;;3.20;;
69369;SDS011;56530;42.640;23.372;2024-01-16T13:51:46;5.30;;;3.17;;
69369;SDS011;56530;42.640;23.372;2024-01-16T13:54:12;3.47;;;2.93;;
69369;SDS011;56530;42.640;23.372;2024-01-16T13:56:37;5.40;;;2.97;;
69369;SDS011;56530;42.640;23.372;2024-01-16T13:59:04;2.97;;;2.77;;
69369;SDS011;56530;42.640;23.372;2024-01-16T14:01:30;6.47;;;3.23;;
69369;SDS011;56530;42.640;23.372;2024-01-16T14:03:56;3.13;;;2.87;;
69369;SDS011;56530;42.640;23.372;2024-01-16T14:06:23;5.33;;;3.20;;
69369;SDS011;56530;42.640;23.372;2024-01-16T14:08:48;3.57;;;3.27;;
69369;SDS011;56530;42.640;23.372;2024-01-16T14:11:13;5.57;;;3.30;;
69369;SDS011;56530;42.640;23.372;2024-01-16T14:13:39;4.03;;;3.63;;
69369;SDS011;56530;42.640;23.372;2024-01-16T14:16:04;3.97;;;3.50;;
69369;SDS011;56530;42.640;23.372;2024-01-16T14:18:30;4.20;;;3.13;;
69369;SDS011;56530;42.640;23.372;2024-01-16T14:20:55;5.67;;;3.40;;
69369;SDS011;56530;42.640;23.372;2024-01-16T14:23:21;8.37;;;4.23;;
69369;SDS011;56530;42.640;23.372;2024-01-16T14:25:47;7.23;;;4.73;;
69369;SDS011;56530;42.640;23.372;2024-01-16T14:28:12;5.13;;;3.60;;
69369;SDS011;56530;42.640;23.372;2024-01-16T14:30:38;4.17;;;3.80;;
69369;SDS011;56530;42.640;23.372;2024-01-16T14:33:05;3.53;;;3.23;;
69369;SDS011;56530;42.640;23.372;2024-01-16T14:35:32;6.07;;;3.23;;
69369;SDS011;56530;42.640;23.372;2024-01-16T14:37:58;4.30;;;3.73;;